Tiempo atmosférico en la estación meteorológica de Fisterra, A Coruña (230 m.)



Fecha
DESCASC
Temp. máxima en grados centígrados (hora)
DESCASC
Temp. mínima en grados centígrados (hora)
DESCASC
Temp. media en grados centígrados
DESCASC
Racha de viento máxima en m/sg (hora)
DESCASC
Velocidad máxima media en intervalos de 10 minutos(hora)
DESCASC
Precipitaciones diarias en mm
DESCASC
Precipitaciones de 00:00 a 06:00 en mm
DESCASC
Precipitaciones de 06:00 a 12:00 en mm
DESCASC
Precipitaciones de 12:00 a 18:00 en mm
DESCASC
Precipitaciones de 18:00 a 24:00 en mm
DESCASC
15-08-2019 21.6 (15:50) 14.8 (08:10) 18.2 13.06 (23:20) 9.72 (23:10) 0 0 0 0 0
14-08-2019 19.9 (17:10) 15.4 (00:00) 17.6 9.17 (22:50) 6.67 (06:40) 0 0 0 0 0
13-08-2019 18 (17:30) 13.4 (00:00) 15.7 13.61 (16:20) 9.44 (17:00) 0 0 0 0 0
12-08-2019 17.9 (12:40) 14.3 (00:00) 16.1 13.61 (18:30) 9.44 (23:59) 0 0 0 0 0
11-08-2019 -- (--) -- (--) -- -- (--) -- (--) -- -- -- -- 0
10-08-2019 20.6 (16:30) 16.2 (00:00) 18.4 11.11 (00:10) 9.72 (00:20) 1.2 1.2 0 0 0
09-08-2019 -- (--) -- (--) -- -- (--) -- (--) -- -- -- -- 0
08-08-2019 19 (13:10) 16.8 (00:00) 17.9 24.44 (17:00) 17.22 (20:00) 15 2.4 0.8 6.6 5.2
07-08-2019 18.1 (00:00) 16.1 (00:00) 17.1 24.72 (22:40) 14.72 (21:30) 16.8 0.2 8.6 2.8 5.2
06-08-2019 18.7 (16:00) 16.8 (00:00) 17.8 11.39 (12:30) 7.78 (13:50) 2.6 0 1 1.6 0
05-08-2019 22.1 (18:40) 16.5 (00:00) 19.3 8.89 (08:40) 6.94 (08:40) 0 0 0 0 0
04-08-2019 20.3 (18:20) 16.4 (00:00) 18.3 10.28 (02:20) 7.5 (01:00) 0 0 0 0 0
03-08-2019 21.7 (16:00) 16.3 (00:00) 19 11.94 (21:20) 8.33 (22:00) 0 0 0 0 0
02-08-2019 19.7 (12:00) 15.8 (00:00) 17.8 14.72 (19:20) 9.72 (20:00) 0 0 0 0 0
01-08-2019 19.7 (17:00) 15.4 (00:00) 17.6 16.11 (21:00) 11.11 (22:10) 0 0 0 0 0
31-07-2019 18.9 (12:30) 14.5 (00:00) 16.7 18.06 (22:40) 13.06 (22:10) 0 0 0 0 0
30-07-2019 19.1 (16:50) 14.7 (00:00) 16.9 9.44 (20:50) 6.67 (23:20) 0 0 0 0 0
29-07-2019 18.7 (16:20) 14.9 (00:00) 16.8 17.78 (01:10) 11.11 (00:20) 0.2 0 0.2 0 0
28-07-2019 21.6 (17:20) 14.6 (00:00) 18.1 17.5 (23:59) 11.39 (23:50) 1.6 0 0 0 1.6
27-07-2019 18.3 (14:50) 14 (00:00) 16.1 16.67 (05:40) 10 (05:40) 10.6 5 5.6 0 0
26-07-2019 21.8 (16:20) 15.7 (00:00) 18.7 8.33 (01:10) 5.83 (01:00) 0 0 0 0 0
25-07-2019 22.4 (17:30) 15.8 (00:00) 19.1 18.33 (04:20) 12.5 (07:50) 4.2 0.8 3.2 0.2 0
24-07-2019 18.2 (17:20) 15.7 (00:00) 17 15.83 (19:00) 10.28 (19:00) 0.2 0 0 0.2 0
23-07-2019 20.2 (17:40) 16.6 (00:00) 18.4 14.72 (00:10) 9.72 (00:10) 0 0 0 0 0
22-07-2019 22.9 (18:30) 17.3 (00:00) 20.1 16.39 (22:00) 11.94 (21:20) 0 0 0 0 0
21-07-2019 19.3 (19:20) 14.8 (00:00) 17 16.11 (13:30) 11.11 (13:30) 0 0 0 0 0
20-07-2019 18.6 (15:40) 16.4 (00:00) 17.5 12.5 (20:10) 8.89 (20:00) 0.2 0 0.2 0 0
19-07-2019 21.5 (18:20) 15.5 (00:00) 18.5 15 (11:40) 11.39 (12:40) 0 0 0 0 0

Gráficas

Temp. máximas Temp. mínimas Temp. medias Precipitaciones Rachas de viento máximas Velocidades máximas media en intervalos de 10 minutos

Datos horarios

Fecha y hora oficial Temperatura (ºC) Velocidad del viento (km/h) Dirección del viento Racha (km/h) Dirección de racha Precipitación (mm) Presión (hPa) Tendencia (hPa) Humedad (%)
2019-08-17 23:00:00 18.5 36 Sudoeste 49 Sudoeste 0 986.9 0.1 95
2019-08-17 22:00:00 18.4 37 Sudoeste 49 Sudoeste 0 986.7 -0.7 95
2019-08-17 21:00:00 19 39 Sudoeste 49 Sudoeste 0 986.3 -1.4 95
2019-08-17 20:00:00 19.2 36 Sudoeste 44 Sudoeste 0 986.8 -1.2 95
2019-08-17 19:00:00 19.6 34 Sudoeste 43 Sudoeste 0 987.4 -0.7 95
2019-08-17 18:00:00 19.7 34 Sudoeste 41 Sudoeste 0 987.7 -0.6 95
2019-08-17 17:00:00 19.3 36 Sudoeste 49 Sudoeste 0.2 988 -0.5 95
2019-08-17 16:00:00 18.8 40 Sudoeste 49 Sudoeste 0.2 988.1 -0.7 95
2019-08-17 15:00:00 18.6 39 Sudoeste 50 Sudoeste 0 988.3 -0.5 95
2019-08-17 14:00:00 18.5 39 Sudoeste 49 Sudoeste 0.2 988.5 -0.5 95
2019-08-17 13:00:00 18.3 39 Sudoeste 47 Sudoeste 0.2 988.8 -0.3 95
2019-08-17 12:00:00 18.1 37 Sudoeste 45 Sudoeste 0.4 988.8 -0.3 95
2019-08-17 11:00:00 18 33 Sudoeste 44 Sudoeste 0.4 989 -0.1 95
2019-08-17 10:00:00 18.1 31 Sudoeste 44 Sudoeste 0.2 989.1 0 95
2019-08-17 09:00:00 18.2 33 Sudoeste 42 Sudoeste 0.4 989.1 -0.3 95
2019-08-17 08:00:00 18 28 Sudoeste 36 Sudoeste 0.2 989.1 -0.6 95
2019-08-17 07:00:00 18.1 28 Sudoeste 38 Sudoeste 0.2 989.1 -0.8 95
2019-08-17 06:00:00 17.9 26 Sudoeste 32 Sudoeste 0 989.4 -1.1 95
2019-08-17 05:00:00 17.9 25 Sudoeste 38 Sudoeste 0 989.7 -1.3 95
2019-08-17 04:00:00 18.1 28 Sudoeste 37 Sudoeste 0 989.9 -1.1 95
2019-08-17 03:00:00 18.1 29 Sudoeste 38 Sudoeste 0 990.5 -0.9 95
2019-08-17 02:00:00 18.1 27 Sudoeste 35 Sudoeste 0 991 -0.6 94
2019-08-17 01:00:00 18.2 27 Sur 33 Sudoeste 0 991 -0.6 94
2019-08-17 00:00:00 18.4 25 Sudoeste 31 Sudoeste 0 991.4 0.3 93
2019-08-16 23:00:00 18.7 19 Sudoeste 24 Sudoeste 0 991.6 0.1 92
2019-08-16 22:00:00 18.8 16 Sudoeste 21 Sur 0 991.6 -0.1 91
2019-08-16 21:00:00 19.6 14 Sur 19 Sur 0 991.1 -1 87
2019-08-16 20:00:00 21.1 11 Sudoeste 18 Sudoeste 0 991.5 -0.9 87
2019-08-16 19:00:00 19.6 14 Sudoeste 18 Sudoeste 0 991.7 -0.7 88
2019-08-16 18:00:00 21.1 13 Sudoeste 19 Sudoeste 0 992.1 -0.7 80
2019-08-16 17:00:00 22.9 12 Sudoeste 21 Sudoeste 0 992.4 -0.4 73
2019-08-16 16:00:00 22.4 10 Sur 19 Sudoeste 0 992.4 -0.5 74
2019-08-16 15:00:00 22.6 12 Sudoeste 19 Sudoeste 0 992.8 0 73
2019-08-16 14:00:00 21.5 10 Sudoeste 19 Sudoeste 0 992.8 0.3 75
2019-08-16 13:00:00 20.4 11 Sudoeste 15 Sudoeste 0 992.9 0.3 78
2019-08-16 12:00:00 19.9 8 Oeste 13 Oeste 0 992.8 0.2 78
2019-08-16 11:00:00 18.9 8 Norte 14 Norte 0 992.5 0.2 81
2019-08-16 10:00:00 18.1 5 Norte 17 Norte 0 992.6 0.5 83
2019-08-16 09:00:00 17.5 14 Norte 23 Norte 0 992.6 0.3 85
2019-08-16 08:00:00 16.9 19 Norte 30 Norte 0 992.3 -0.3 88
2019-08-16 07:00:00 16.3 26 Nordeste 32 Nordeste 0 992.1 -0.5 91
2019-08-16 06:00:00 15.9 26 Nordeste 35 Norte 0 992.3 -0.6 91
2019-08-16 05:00:00 15.5 26 Norte 32 Norte 0 992.6 -0.8 88
2019-08-16 04:00:00 15.7 22 Nordeste 37 Nordeste 0 992.6 -1.2 86
2019-08-16 03:00:00 15.5 31 Nordeste 38 Nordeste 0 992.9 -1 88
2019-08-16 02:00:00 15.4 25 Nordeste 35 Nordeste 0 993.4 -0.5 88
2019-08-16 01:00:00 15.4 24 Nordeste 40 Nordeste 0 993.8 -0.1 87
2019-08-16 00:00:00 15.8 31 Nordeste 47 Nordeste 0 993.9 0.1 84
2019-08-15 23:00:00 16.4 32 Nordeste 44 Nordeste 0 993.9 0.1 81
2019-08-15 22:00:00 16.4 29 Nordeste 37 Nordeste 0 993.9 0 82
2019-08-15 21:00:00 17.7 28 Nordeste 41 Norte 0 993.8 -0.2 78
2019-08-15 20:00:00 18.6 27 Norte 39 Norte 0 993.8 -0.7 75
2019-08-15 19:00:00 18.6 31 Nordeste 46 Nordeste 0 993.9 -1 76
2019-08-15 18:00:00 19.3 30 Nordeste 44 Nordeste 0 994 -1 75
2019-08-15 17:00:00 18.7 30 Nordeste 42 Nordeste 0 994.5 -0.8 77
2019-08-15 16:00:00 20 21 Nordeste 40 Nordeste 0 994.9 -0.5 73
2019-08-15 15:00:00 19 29 Nordeste 39 Norte 0 995 -0.4 76
2019-08-15 14:00:00 19.4 25 Nordeste 38 Norte 0 995.3 -0.1 76
2019-08-15 13:00:00 18.6 25 Nordeste 36 Nordeste 0 995.4 0.1 78
2019-08-15 12:00:00 18.1 24 Nordeste 35 Nordeste 0 995.4 0.4 79
2019-08-15 11:00:00 18 17 Nordeste 33 Nordeste 0 995.4 0.7 77
2019-08-15 10:00:00 16.7 24 Nordeste 33 Nordeste 0 995.3 0.7 82
2019-08-15 09:00:00 15.6 25 Nordeste 37 Nordeste 0 995 0.1 85
2019-08-15 08:00:00 15 25 Nordeste 37 Nordeste 0 994.7 0 86
2019-08-15 07:00:00 15 27 Nordeste 37 Nordeste 0 994.6 -0.7 86
2019-08-15 06:00:00 15 30 Nordeste 39 Nordeste 0 994.9 -0.7 87
2019-08-15 05:00:00 15.4 26 Nordeste 36 Nordeste 0 994.7 -1.3 85
2019-08-15 04:00:00 15.5 23 Nordeste 32 Nordeste 0 995.3 -0.6 85
2019-08-15 03:00:00 15.4 21 Nordeste 31 Nordeste 0 995.6 -0.2 87
2019-08-15 02:00:00 15.4 19 Nordeste 27 Nordeste 0 996 0.4 87
2019-08-15 01:00:00 15.6 22 Nordeste 33 Norte 0 995.9 0.9 87
2019-08-15 00:00:00 15.7 23 Nordeste 30 Norte 0 995.8 1 88
2019-08-14 23:00:00 15.9 21 Norte 33 Norte 0 995.6 0.7 90
2019-08-14 22:00:00 16.3 18 Norte 26 Norte 0 995 0 95
2019-08-14 21:00:00 16.9 18 Norte 32 Norte 0 994.8 -0.1 95
2019-08-14 20:00:00 17.7 17 Norte 28 Norte 0 994.9 -0.2 94
2019-08-14 19:00:00 18.2 13 Norte 20 Norte 0 995 -0.2 93
2019-08-14 18:00:00 19 11 Norte 15 Norte 0 994.9 -0.4 91
2019-08-14 17:00:00 19.7 6 Noroeste 11 Norte 0 995.1 -0.4 92
2019-08-14 16:00:00 19.7 6 Oeste 12 Oeste 0 995.2 0 90
2019-08-14 15:00:00 19.4 8 Sudoeste 16 Sudoeste 0 995.3 0.3 89
2019-08-14 14:00:00 19.3 12 Oeste 19 Sudoeste 0 995.5 0.7 89
2019-08-14 13:00:00 18.8 7 Sur 13 Sur 0 995.2 0.6 89
2019-08-14 12:00:00 17.8 4 Sudeste 12 Sudeste 0 995 0.8 92
2019-08-14 11:00:00 16.9 7 Sudeste 15 Oeste 0 994.8 1 93
2019-08-14 10:00:00 16 9 Sur 21 Sur 0 994.6 1.2 93
2019-08-14 09:00:00 15.9 15 Sur 27 Sudeste 0 994.2 0.8 90
2019-08-14 08:00:00 16.4 19 Sur 31 Sur 0 993.8 -0.1 86
2019-08-14 07:00:00 16.6 22 Sur 32 Sur 0 993.4 -1.2 81
2019-08-14 06:00:00 16.7 20 Sur 26 Sur 0 993.4 -1.4 82
2019-08-14 05:00:00 16.7 10 Sur 16 Sur 0 993.9 -0.7 79
2019-08-14 04:00:00 16.4 8 Sudoeste 14 Oeste 0 994.6 0.2 80
2019-08-14 03:00:00 16.3 8 Oeste 11 Noroeste 0 994.8 0.3 77
2019-08-14 02:00:00 16 7 Noroeste 10 Noroeste 0 994.6 -0.3 74
2019-08-14 01:00:00 15.7 8 Norte 24 Norte 0 994.4 -0.3 66
2019-08-14 00:00:00 15.6 17 Norte 23 Norte 0 994.5 -0.1 77
2019-08-13 23:00:00 15.6 18 Norte 33 Norte 0 994.9 0.4 76
2019-08-13 22:00:00 15.8 24 Norte 39 Norte 0 994.7 0.1 77
2019-08-13 21:00:00 16.6 26 Norte 41 Norte 0 994.6 -0.1 74
2019-08-13 20:00:00 17.5 28 Norte 44 Norte 0 994.5 -0.5 71
2019-08-13 19:00:00 17.4 29 Norte 48 Norte 0 994.6 -0.5 70
2019-08-13 18:00:00 17.7 33 Norte 47 Norte 0 994.7 -0.7 72
2019-08-13 17:00:00 17.7 34 Norte 49 Norte 0 995 -0.7 74
2019-08-13 16:00:00 17.5 31 Norte 47 Norte 0 995.1 -0.5 73
2019-08-13 15:00:00 17.7 27 Norte 43 Norte 0 995.4 -0.5 72
2019-08-13 14:00:00 17.2 27 Norte 46 Norte 0 995.7 -0.4 76
2019-08-13 13:00:00 17 24 Norte 40 Norte 0 995.6 -0.3 76
2019-08-13 12:00:00 16.6 21 Norte 39 Nordeste 0 995.9 0.3 77
2019-08-13 11:00:00 16.5 20 Norte 37 Nordeste 0 996.1 0.5 71
2019-08-13 10:00:00 15.6 21 Nordeste 41 Nordeste 0 995.9 0.6 75
2019-08-13 09:00:00 14.8 29 Nordeste 40 Nordeste 0 995.6 0.3 77
2019-08-13 08:00:00 13.9 26 Nordeste 36 Nordeste 0 995.6 0.2 81
2019-08-13 07:00:00 13.8 26 Nordeste 37 Nordeste 0 995.3 -0.5 80
2019-08-13 06:00:00 13.8 26 Nordeste 36 Nordeste 0 995.3 -1.1 80
2019-08-13 05:00:00 13.7 23 Nordeste 38 Nordeste 0 995.4 -1.6 80
2019-08-13 04:00:00 13.7 26 Nordeste 35 Nordeste 0 995.8 -1.2 79
2019-08-13 03:00:00 13.4 19 Nordeste 30 Nordeste 0 996.4 -0.6 82
2019-08-13 02:00:00 13.9 19 Nordeste 41 Nordeste 0 997 -0.1 81
2019-08-13 01:00:00 14.3 28 Nordeste 44 Nordeste 0 997 -0.1 81
2019-08-13 00:00:00 14.5 34 Nordeste 45 Nordeste 0 997 0.4 80
2019-08-12 23:00:00 14.7 28 Nordeste 41 Nordeste 0 997.1 0.8 79
2019-08-12 22:00:00 15.2 26 Nordeste 37 Norte 0 997.1 1 79
2019-08-12 21:00:00 16.5 25 Norte 44 Norte 0 996.6 0.4 74
2019-08-12 20:00:00 17.2 23 Norte 44 Norte 0 996.3 -0.3 74
2019-08-12 19:00:00 17.3 27 Norte 49 Norte 0 996.1 -0.9 71
2019-08-12 18:00:00 17.7 26 Norte 42 Norte 0 996.2 -1.2 65
2019-08-12 17:00:00 17.8 26 Norte 40 Norte 0 996.6 -1 71
2019-08-12 16:00:00 17.3 24 Norte 37 Norte 0 997 -0.7 74
2019-08-12 15:00:00 16.5 19 Norte 33 Norte 0 997.4 -0.2 74
2019-08-12 14:00:00 16.8 20 Norte 34 Norte 0 997.6 0.3 74
2019-08-12 13:00:00 17 20 Norte 32 Norte 0 997.7 0.7 76
2019-08-12 12:00:00 17.1 17 Norte 25 Norte 0 997.6 0.8 76
2019-08-12 11:00:00 16.8 15 Norte 19 Norte 0 997.3 1 76
2019-08-12 10:00:00 16.1 14 Norte 22 Norte 0 997 1.1 74
2019-08-12 09:00:00 15.6 15 Norte 23 Norte 0 996.8 1.1 76
2019-08-12 08:00:00 14.8 18 Norte 22 Norte 0 996.3 0.7 78
2019-08-12 07:00:00 14.8 14 Nordeste 23 Nordeste 0 995.9 0 78
2019-08-12 06:00:00 14.7 19 Nordeste 25 Norte 0 995.7 -0.4 79
2019-08-12 05:00:00 14.9 19 Norte 27 Norte 0 995.6 -0.5 80
2019-08-12 04:00:00 15.4 17 Norte 25 Norte 0 995.9 -0.3 82
2019-08-12 03:00:00 15.4 16 Norte 23 Norte 0 996.1 0 82
2019-08-12 02:00:00 15.5 16 Norte 28 Norte 0 996.1 0.2 81
2019-08-12 01:00:00 15.6 18 Norte 31 Norte 0 996.2 0.9 82
2019-08-12 00:00:00 15.9 20 Norte 31 Norte 0 996.1 1.2 79
2019-08-11 23:00:00 16 19 Norte 31 Norte 0 995.9 1.4 79
2019-08-11 22:00:00 16.3 21 Norte 31 Norte 0 995.3 0.9 83
2019-08-11 21:00:00 16.8 11 Noroeste 28 Noroeste 0 994.9 0.7 79
2019-08-11 20:00:00 18.2 12 Noroeste 28 Noroeste 0 994.5 -- 75
2019-08-11 19:00:00 18.6 15 Noroeste 31 Noroeste 0 994.4 -- 70
2019-08-11 18:00:00 19 15 Noroeste -- -- -- 994.2 -- 71
2019-08-11 17:00:00 -- -- -- -- -- -- -- -- --
2019-08-11 16:00:00 -- -- -- -- -- -- -- -- --
2019-08-11 15:00:00 -- -- -- -- -- -- -- -- --
2019-08-11 14:00:00 18 -- -- -- -- -- 994.1 -- 82
2019-08-11 13:00:00 -- -- -- -- -- -- -- -- --
2019-08-11 12:00:00 -- -- -- -- -- -- -- -- --
2019-08-11 11:00:00 -- -- -- -- -- -- -- -- --
2019-08-11 10:00:00 -- -- -- -- -- -- -- -- --
2019-08-11 09:00:00 -- -- -- -- -- -- -- -- --
2019-08-11 08:00:00 -- -- -- -- -- -- -- -- --
2019-08-11 07:00:00 -- -- -- -- -- -- -- -- --
2019-08-11 06:00:00 -- -- -- -- -- -- -- -- --
2019-08-11 05:00:00 15.9 8 Noroeste 17 Noroeste 0 992.5 -1.2 84
2019-08-11 04:00:00 15.7 9 Noroeste 19 Noroeste 0 992.9 -0.7 84
2019-08-11 03:00:00 16 10 Noroeste 21 Noroeste 0 993.4 -0.3 83
2019-08-11 02:00:00 16.1 12 Norte 20 Norte 0 993.7 -0.6 83
2019-08-11 01:00:00 16.4 9 Noroeste 20 Norte 0 993.6 -0.4 84
2019-08-11 00:00:00 16.3 10 Noroeste 19 Noroeste 0 993.7 -0.3 82
2019-08-10 23:00:00 16.5 6 Noroeste 21 Noroeste 0 994.3 0.8 83
2019-08-10 22:00:00 16.7 14 Noroeste 23 Noroeste 0 994 -0.1 82
2019-08-10 21:00:00 17.7 11 Noroeste 21 Noroeste 0 994 -0.2 79
2019-08-10 20:00:00 18.1 9 Noroeste 24 Noroeste 0 993.5 -0.6 75
2019-08-10 19:00:00 18.5 13 Noroeste 23 Noroeste 0 994.1 -0.1 75
2019-08-10 18:00:00 19.8 13 Oeste 20 Noroeste 0 994.2 0 73
2019-08-10 17:00:00 20.1 16 Oeste 23 Oeste 0 994.1 -0.4 73
2019-08-10 16:00:00 20.4 13 Oeste 21 Oeste 0 994.2 -0.1 72
2019-08-10 15:00:00 19.8 13 Oeste 22 Oeste 0 994.2 0.1 75
2019-08-10 14:00:00 19.5 14 Oeste 21 Oeste 0 994.5 0.6 78
2019-08-10 13:00:00 18.7 13 Oeste 21 Oeste 0 994.3 0.5 80
2019-08-10 12:00:00 18.2 14 Oeste 20 Oeste 0 994.1 0.8 81
2019-08-10 11:00:00 17.5 17 Oeste 23 Oeste 0 993.9 1 83
2019-08-10 10:00:00 16.9 18 Oeste 27 Oeste 0 993.8 1.2 86
2019-08-10 09:00:00 16.8 21 Oeste 28 Oeste 0 993.3 1.2 86
2019-08-10 08:00:00 16.3 22 Oeste 28 Oeste 0 992.9 1.1 88
2019-08-10 07:00:00 16.2 24 Oeste 31 Oeste 0 992.6 0.8 88
2019-08-10 06:00:00 16.2 23 Oeste 31 Oeste 0 992.1 0.4 89
2019-08-10 05:00:00 16.3 26 Oeste 33 Oeste 0 991.8 0.1 89
2019-08-10 04:00:00 16.5 23 Oeste 31 Oeste 0 991.8 0.3 89
2019-08-10 03:00:00 16.3 27 Oeste 34 Oeste 1.2 991.7 0.5 90
2019-08-10 02:00:00 17 20 Oeste 37 Oeste 0 991.7 0.6 87
2019-08-10 01:00:00 17 26 Oeste 40 Oeste 0 991.5 1.1 87
2019-08-10 00:00:00 17 31 Oeste 41 Oeste 0 991.2 1.3 87
2019-08-09 23:00:00 17 30 Oeste 38 Oeste 0 991.1 1.7 89
2019-08-09 22:00:00 17.1 29 Oeste 38 Oeste 0 990.4 1.4 89
2019-08-09 21:00:00 18.5 30 Oeste 39 Sudoeste 0 989.9 1.3 85
2019-08-09 20:00:00 19.2 33 Oeste 44 Oeste 0 989.4 1.3 82
2019-08-09 19:00:00 20 35 Oeste 47 Oeste 0 989 1.1 81
2019-08-09 18:00:00 19.2 36 Oeste 60 Oeste 0 988.6 1.5 82
2019-08-09 17:00:00 20.1 39 Oeste 54 Oeste 0 988.1 -- 83
2019-08-09 16:00:00 20 39 Sudoeste 56 Sudoeste 0 987.9 -- 86
2019-08-09 15:00:00 19.4 42 Sudoeste -- -- -- 987.1 -- 87
2019-08-09 14:00:00 -- -- -- -- -- -- -- -- --
2019-08-09 13:00:00 -- -- -- -- -- -- -- -- --
2019-08-09 12:00:00 -- -- -- -- -- -- -- -- --
2019-08-09 11:00:00 -- -- -- -- -- -- -- -- --
2019-08-09 10:00:00 -- -- -- -- -- -- -- -- --
2019-08-09 09:00:00 -- -- -- -- -- -- -- -- --
2019-08-09 08:00:00 -- -- -- -- -- -- -- -- --
2019-08-09 07:00:00 -- -- -- -- -- -- -- -- --
2019-08-09 06:00:00 -- -- -- -- -- -- -- -- --
2019-08-09 05:00:00 -- -- -- -- -- -- -- -- --
2019-08-09 04:00:00 -- -- -- -- -- -- -- -- --
2019-08-09 03:00:00 17.8 56 Sudoeste 70 Sudoeste 0.2 981.5 0.2 96
2019-08-09 02:00:00 17.9 57 Sudoeste 71 Sudoeste 0 981.5 0.5 96
2019-08-09 01:00:00 17.9 54 Sudoeste 66 Sudoeste 0 981.3 0.7 96
2019-08-09 00:00:00 17.9 48 Sudoeste 58 Sudoeste 0 981.3 1.5 96
2019-08-08 23:00:00 18.1 43 Sudoeste 54 Sudoeste 0 981 2 96
2019-08-08 22:00:00 17.8 42 Sudoeste 59 Sudoeste 0 980.6 2.1 96
2019-08-08 21:00:00 18.3 45 Sudoeste 67 Sudoeste 1.8 979.8 1 96
2019-08-08 20:00:00 18.5 62 Sudoeste 84 Sudoeste 2.8 979 0.1 96
2019-08-08 19:00:00 18.1 44 Sur 82 Sur 0.6 978.5 -0.9 96
2019-08-08 18:00:00 18.1 45 Sur 81 Sur 0.2 978.8 -0.7 96
2019-08-08 17:00:00 17.9 47 Sur 88 Sur 3.6 978.9 -1.3 96
2019-08-08 16:00:00 17.8 40 Sur 73 Sudoeste 2.6 979.4 -1.2 96
2019-08-08 15:00:00 18 42 Sur 72 Sur 0.2 979.5 -1.5 96
2019-08-08 14:00:00 19 43 Sur 74 Sudoeste 0 980.2 -0.8 96
2019-08-08 13:00:00 18.9 43 Sur 69 Sur 0 980.6 -0.9 96
2019-08-08 12:00:00 18.4 40 Sur 68 Sur 0 981 -0.5 96
2019-08-08 11:00:00 18.5 39 Sur 65 Sur 0.4 981 -0.7 96
2019-08-08 10:00:00 18.3 28 Sur 52 Sudoeste 0 981.5 -0.2 96
2019-08-08 09:00:00 17.5 30 Sur 56 Sudoeste 0.2 981.5 -0.3 96
2019-08-08 08:00:00 17.6 30 Sur 55 Sudoeste 0 981.7 -0.3 96
2019-08-08 07:00:00 17.8 31 Sur 48 Sudoeste 0.2 981.7 -0.1 96
2019-08-08 06:00:00 16.9 31 Sur 50 Sur 0.8 981.8 -0.2 96
2019-08-08 05:00:00 17 33 Sur 58 Sur 0.4 982 -0.1 96
2019-08-08 04:00:00 17.3 41 Sur 62 Sur 0.4 981.8 -0.4 96
2019-08-08 03:00:00 16.9 36 Sur 59 Sudoeste 0 982 -0.2 96
2019-08-08 02:00:00 16.9 35 Sur 60 Sudoeste 0.4 982.1 -0.2 96
2019-08-08 01:00:00 17 36 Sur 69 Sur 0.4 982.2 0.5 96
2019-08-08 00:00:00 17.2 39 Sur 82 Sur 0.2 982.2 0.4 96
2019-08-07 23:00:00 17.2 41 Sur 89 Sur 0.4 982.3 0.1 96
2019-08-07 22:00:00 16.5 47 Sur 89 Sur 0.8 981.7 -1.1 96
2019-08-07 21:00:00 16.2 44 Sur 85 Sur 1.4 981.8 -1.3 96
2019-08-07 20:00:00 16.6 42 Sur 76 Sur 1.2 982.2 -1.3 96
2019-08-07 19:00:00 17.1 40 Sur 66 Sur 1.2 982.8 -1 96
2019-08-07 18:00:00 17.3 38 Sur 64 Sur 0.4 983.1 -0.8 96
2019-08-07 17:00:00 17.3 37 Sur 66 Sur 0.4 983.5 -0.5 96
2019-08-07 16:00:00 17.2 35 Sur 59 Sur 0.8 983.8 -0.2 96
2019-08-07 15:00:00 17.2 35 Sur 69 Sur 0.4 983.9 0.5 96
2019-08-07 14:00:00 17 37 Sur 71 Sur 0.4 984 0.2 96
2019-08-07 13:00:00 17 36 Sur 79 Sur 0.4 984 0 96
2019-08-07 12:00:00 17.4 42 Sur 73 Sur 1.8 983.4 -0.5 96
2019-08-07 11:00:00 17.4 35 Sur 65 Sur 4.2 983.8 -0.2 96
2019-08-07 10:00:00 17.5 27 Sur 50 Sur 1.6 984 -0.2 96
2019-08-07 09:00:00 17.5 26 Sur 44 Sur 1 983.9 -0.6 96
2019-08-07 08:00:00 17.5 23 Sur 39 Sur 0 984 -0.9 96
2019-08-07 07:00:00 17.5 22 Sur 39 Sur 0 984.2 -0.8 96
2019-08-07 06:00:00 17.5 21 Sur 35 Sur 0 984.5 -0.7 96
2019-08-07 05:00:00 17.4 20 Sur 33 Sur 0 984.9 -0.7 96
2019-08-07 04:00:00 17.4 17 Sur 33 Sur 0.2 985 -1.1 96
2019-08-07 03:00:00 17.5 19 Sur 30 Sur 0 985.2 -1.6 96
2019-08-07 02:00:00 17.6 23 Sur 31 Sur 0 985.6 -1.3 96
2019-08-07 01:00:00 17.8 17 Sur 20 Sur 0 986.1 -0.6 96
2019-08-07 00:00:00 18.1 14 Sudoeste 25 Sudoeste 0 986.8 0 96
2019-08-06 23:00:00 18.2 12 Sur 18 Sur 0 986.9 0.4 96
2019-08-06 22:00:00 18 10 Sudoeste 21 Sudoeste 0 986.7 0.1 96
2019-08-06 21:00:00 17.9 12 Sur 27 Sudoeste 0 986.8 0.1 96
2019-08-06 20:00:00 17.9 17 Sudoeste 30 Sudoeste 0 986.5 -0.7 95
2019-08-06 19:00:00 17.3 20 Sur 28 Sur 0 986.6 -1.2 95
2019-08-06 18:00:00 17.4 15 Sur 38 Sur 0.2 986.7 -1.8 95
2019-08-06 17:00:00 17 21 Sur 39 Sudoeste 0.6 987.2 -1.1 95
2019-08-06 16:00:00 18.7 7 Sur 33 Sudoeste 0.2 987.8 -0.3 95
2019-08-06 15:00:00 17.6 23 Sudoeste 35 Sudoeste 0.2 988.5 0.4 95
2019-08-06 14:00:00 17.3 24 Sudoeste 39 Sudoeste 0 988.3 0.5 95
2019-08-06 13:00:00 17.3 26 Sur 41 Sur 0.4 988.1 0.4 95
2019-08-06 12:00:00 17.2 19 Sur 36 Sudoeste 0 988.1 0.8 95
2019-08-06 11:00:00 17.2 21 Sur 32 Sur 0.2 987.8 0.4 95
2019-08-06 10:00:00 17 22 Sur 31 Sudoeste 0 987.7 0.4 95
2019-08-06 09:00:00 17.2 23 Sur 32 Sudoeste 0.2 987.3 -0.2 95
2019-08-06 08:00:00 17.3 17 Sur 29 Sur 0.6 987.4 0 95
2019-08-06 07:00:00 17.3 15 Sur 28 Sur 0 987.3 -0.7 94
2019-08-06 06:00:00 17.5 17 Sur 28 Sur 0 987.5 -0.9 93
2019-08-06 05:00:00 17.6 21 Sur 31 Sur 0 987.4 -1.6 93
2019-08-06 04:00:00 17.7 17 Sur 24 Sur 0 988 -1.2 92
2019-08-06 03:00:00 17.7 18 Sur 22 Sur 0 988.4 -1.2 91
2019-08-06 02:00:00 17.8 15 Sur 19 Sur 0 989 -0.4 89
2019-08-06 01:00:00 18 8 Sur 10 Sudoeste 0 989.2 0 88
2019-08-06 00:00:00 17.9 6 Oeste 13 Oeste 0 989.6 0.7 87
2019-08-05 23:00:00 18 9 Oeste 22 Oeste 0 989.4 0.6 90
2019-08-05 22:00:00 18.1 14 Oeste 18 Oeste 0 989.2 0 90
2019-08-05 21:00:00 19.2 7 Sudoeste 13 Sudoeste 0 988.9 -0.6 89
2019-08-05 20:00:00 19.5 7 Oeste 13 Oeste 0 988.8 -0.7 87
2019-08-05 19:00:00 21.7 9 Oeste 15 Oeste 0 989.2 -0.3 80
2019-08-05 18:00:00 20.7 9 Oeste 16 Sudoeste 0 989.5 -0.3 88
2019-08-05 17:00:00 19 10 Sur 24 Sur 0 989.5 -0.4 89
2019-08-05 16:00:00 18.1 15 Sur 29 Sudoeste 0 989.5 -0.6 91
2019-08-05 15:00:00 17.7 15 Sur 28 Sur 0 989.8 -0.4 89
2019-08-05 14:00:00 17.8 17 Sur 25 Sur 0 989.9 -0.2 87
2019-08-05 13:00:00 17.9 17 Sur 27 Sur 0 990.1 0.1 86
2019-08-05 12:00:00 18.2 15 Sur 26 Sur 0 990.2 0.3 85
2019-08-05 11:00:00 17.6 21 Sur 27 Sur 0 990.1 0.2 89
2019-08-05 10:00:00 17.5 21 Sur 29 Sur 0 990 0 90
2019-08-05 09:00:00 16.9 24 Sur 32 Sur 0 989.9 0 92
2019-08-05 08:00:00 16.6 19 Sur 25 Sur 0 989.9 -0.5 92
2019-08-05 07:00:00 16.7 18 Sur 24 Sur 0 990 -0.5 92
2019-08-05 06:00:00 16.7 16 Sur 21 Sur 0 989.9 -0.9 92
2019-08-05 05:00:00 16.8 11 Sudoeste 15 Sudoeste 0 990.4 -0.6 91
2019-08-05 04:00:00 16.9 10 Sur 14 Sur 0 990.5 -0.7 91
2019-08-05 03:00:00 17 12 Sur 14 Sur 0 990.8 -0.5 90
2019-08-05 02:00:00 16.9 7 Sudoeste 10 Sudoeste 0 991 -0.4 90
2019-08-05 01:00:00 17.1 8 Sudoeste 14 Sudoeste 0 991.2 0.1 89
2019-08-05 00:00:00 17.4 9 Oeste 13 Noroeste 0 991.3 0.5 89
2019-08-04 23:00:00 17.5 10 Noroeste 17 Noroeste 0 991.4 0.6 88
2019-08-04 22:00:00 17.6 12 Noroeste 17 Noroeste 0 991.1 0.5 85
2019-08-04 21:00:00 19 11 Noroeste 20 Noroeste 0 990.8 0.1 78
2019-08-04 20:00:00 19.8 13 Noroeste 23 Norte 0 990.8 0.1 76
2019-08-04 19:00:00 19.9 14 Noroeste 23 Noroeste 0 990.6 -0.2 72
2019-08-04 18:00:00 20 15 Noroeste 26 Noroeste 0 990.7 -0.1 71
2019-08-04 17:00:00 20 15 Noroeste 25 Norte 0 990.7 0 74
2019-08-04 16:00:00 19.3 15 Noroeste 24 Noroeste 0 990.8 -0.2 77
2019-08-04 15:00:00 19 14 Noroeste 24 Noroeste 0 990.8 0.1 78
2019-08-04 14:00:00 18.8 11 Norte 20 Norte 0 990.7 0.2 79
2019-08-04 13:00:00 18.3 13 Norte 18 Norte 0 991 0.5 81
2019-08-04 12:00:00 18.6 13 Norte 24 Norte 0 990.7 0.7 83
2019-08-04 11:00:00 17.5 19 Norte 26 Norte 0 990.5 0.8 86
2019-08-04 10:00:00 17.1 19 Norte 31 Norte 0 990.5 0.8 89
2019-08-04 09:00:00 16.9 24 Norte 33 Norte 0 990 0.4 90
2019-08-04 08:00:00 16.6 24 Norte 33 Norte 0 989.7 0 92
2019-08-04 07:00:00 16.5 22 Norte 31 Norte 0 989.7 -0.2 92
2019-08-04 06:00:00 16.7 24 Norte 35 Norte 0 989.6 -0.4 91
2019-08-04 05:00:00 16.7 24 Norte 35 Norte 0 989.7 -0.2 91
2019-08-04 04:00:00 16.8 26 Norte 35 Norte 0 989.9 0 92
2019-08-04 03:00:00 16.8 22 Norte 37 Norte 0 990 0.1 94
2019-08-04 02:00:00 17.1 23 Norte 35 Norte 0 989.9 0.1 95
2019-08-04 01:00:00 17.6 27 Norte 37 Norte 0 989.9 0.5 93
2019-08-04 00:00:00 17.9 25 Norte 35 Norte 0 989.9 0.7 94
2019-08-03 23:00:00 17.7 23 Norte 38 Norte 0 989.8 0.7 91
2019-08-03 22:00:00 17.8 30 Norte 43 Norte 0 989.4 0 93
2019-08-03 21:00:00 18.2 29 Norte 40 Norte 0 989.2 -0.4 93
2019-08-03 20:00:00 19.5 22 Norte 32 Norte 0 989.1 -0.7 87
2019-08-03 19:00:00 18.9 20 Norte 30 Norte 0 989.4 -0.5 91
2019-08-03 18:00:00 19.7 20 Norte 28 Norte 0 989.6 -0.3 84
2019-08-03 17:00:00 20.6 20 Norte 26 Norte 0 989.8 -0.2 80
2019-08-03 16:00:00 21.4 15 Norte 24 Norte 0 989.9 -0.1 73
2019-08-03 15:00:00 21.1 13 Norte 20 Norte 0 989.9 0.1 72
2019-08-03 14:00:00 20.1 15 Norte 19 Norte 0 990 0.6 80
2019-08-03 13:00:00 19.5 14 Norte 19 Norte 0 990 0.6 87
2019-08-03 12:00:00 18.6 16 Norte 20 Norte 0 989.8 0.6 90
2019-08-03 11:00:00 18.4 13 Nordeste 15 Norte 0 989.4 0.5 91
2019-08-03 10:00:00 18.2 8 Nordeste 18 Nordeste 0 989.4 0.7 90
2019-08-03 09:00:00 17.1 17 Nordeste 23 Nordeste 0 989.2 0.4 92
2019-08-03 08:00:00 16.8 19 Nordeste 26 Nordeste 0 988.9 -0.3 91
2019-08-03 07:00:00 16.4 21 Nordeste 26 Nordeste 0 988.7 -0.7 94
2019-08-03 06:00:00 16.4 20 Nordeste 26 Norte 0 988.8 -0.7 95
2019-08-03 05:00:00 16.5 17 Norte 27 Nordeste 0 989.2 -0.6 95
2019-08-03 04:00:00 16.3 17 Nordeste 28 Nordeste 0 989.4 -0.5 94
2019-08-03 03:00:00 16.3 21 Nordeste 29 Nordeste 0 989.5 -0.5 94
2019-08-03 02:00:00 16.5 20 Nordeste 29 Nordeste 0 989.8 -0.6 93
2019-08-03 01:00:00 16.8 19 Nordeste 39 Nordeste 0 989.9 -0.3 92
2019-08-03 00:00:00 16.8 28 Nordeste 39 Nordeste 0 990 0 95
2019-08-02 23:00:00 17 22 Nordeste 32 Norte 0 990.4 0.6 94
2019-08-02 22:00:00 17.3 22 Norte 44 Norte 0 990.2 0.3 93
2019-08-02 21:00:00 18 28 Norte 46 Norte 0 990 0 91
2019-08-02 20:00:00 18.3 35 Norte 53 Norte 0 989.8 -0.7 91
2019-08-02 19:00:00 18.5 31 Norte 44 Norte 0 989.9 -0.8 90
2019-08-02 18:00:00 18.8 29 Norte 42 Norte 0 990 -1.1 89
2019-08-02 17:00:00 19.5 28 Norte 40 Norte 0 990.5 -0.6 81
2019-08-02 16:00:00 19.1 23 Norte 32 Norte 0 990.7 -0.4 79
2019-08-02 15:00:00 18.8 19 Norte 29 Norte 0 991.1 0.1 80
2019-08-02 14:00:00 18.9 17 Norte 27 Norte 0 991.1 0.3 79
2019-08-02 13:00:00 19 17 Norte 25 Norte 0 991.1 0.3 81
2019-08-02 12:00:00 19 14 Nordeste 22 Nordeste 0 991 0.6 81
2019-08-02 11:00:00 19 12 Nordeste 30 Nordeste 0 990.8 0.6 83
2019-08-02 10:00:00 17.2 21 Nordeste 31 Nordeste 0 990.8 0.8 89
2019-08-02 09:00:00 16.2 19 Nordeste 26 Nordeste 0 990.4 0.6 94
2019-08-02 08:00:00 15.9 18 Nordeste 26 Nordeste 0 990.2 0.3 94
2019-08-02 07:00:00 16 18 Nordeste 28 Nordeste 0 990 0.1 93
2019-08-02 06:00:00 16.1 20 Nordeste 36 Nordeste 0 989.8 -0.2 94
2019-08-02 05:00:00 16.1 23 Nordeste 40 Nordeste 0 989.9 -0.3 93
2019-08-02 04:00:00 16 31 Nordeste 44 Nordeste 0 989.9 -0.4 92
2019-08-02 03:00:00 16 29 Nordeste 40 Nordeste 0 990 -0.4 92
2019-08-02 02:00:00 16.1 24 Nordeste 40 Nordeste 0 990.2 -0.1 91
2019-08-02 01:00:00 16.4 27 Nordeste 48 Nordeste 0 990.3 0.7 90
2019-08-02 00:00:00 16.3 30 Nordeste 47 Nordeste 0 990.4 0.9 90
2019-08-01 23:00:00 16.4 30 Nordeste 56 Nordeste 0 990.3 1.1 87
2019-08-01 22:00:00 16.9 37 Nordeste 57 Nordeste 0 989.6 0.7 83
2019-08-01 21:00:00 17.8 35 Nordeste 58 Nordeste 0 989.5 0.5 79
2019-08-01 20:00:00 18.5 31 Norte 46 Nordeste 0 989.2 0.6 78
2019-08-01 19:00:00 19.6 30 Nordeste 52 Norte 0 988.9 0.2 74
2019-08-01 18:00:00 17.8 36 Norte 55 Norte 0 989 0.2 82
2019-08-01 17:00:00 19.4 33 Norte 51 Nordeste 0 988.6 -0.4 74
2019-08-01 16:00:00 19.2 36 Nordeste 55 Norte 0 988.7 -0.2 78
2019-08-01 15:00:00 19.2 35 Norte 55 Norte 0 988.8 0 78
2019-08-01 14:00:00 18.4 35 Norte 50 Norte 0 989 0.5 80
2019-08-01 13:00:00 18.6 29 Norte 46 Nordeste 0 988.9 0.4 78
2019-08-01 12:00:00 18.4 22 Nordeste 43 Nordeste 0 988.8 0.4 78
2019-08-01 11:00:00 17.6 25 Nordeste 40 Nordeste 0 988.5 0.7 83
2019-08-01 10:00:00 16.7 24 Nordeste 36 Nordeste 0 988.5 1 85
2019-08-01 09:00:00 16.2 24 Nordeste 40 Nordeste 0 988.4 0.8 87
2019-08-01 08:00:00 15.6 28 Nordeste 43 Nordeste 0 987.8 -0.1 88
2019-08-01 07:00:00 15.5 26 Nordeste 48 Nordeste 0 987.5 -1 88
2019-08-01 06:00:00 15.6 29 Nordeste 48 Nordeste 0 987.6 -1.2 89
2019-08-01 05:00:00 15.6 33 Nordeste 50 Nordeste 0 987.9 -1 87
2019-08-01 04:00:00 15.6 29 Nordeste 45 Nordeste 0 988.5 -0.4 86
2019-08-01 03:00:00 15.6 28 Nordeste 46 Nordeste 0 988.8 -0.2 86
2019-08-01 02:00:00 15.6 33 Nordeste 51 Nordeste 0 988.9 -0.1 85
2019-08-01 01:00:00 15.7 32 Nordeste 56 Nordeste 0 988.9 0.4 85
2019-08-01 00:00:00 15.8 36 Nordeste 61 Nordeste 0 989 0.3 84
2019-07-31 23:00:00 16 43 Nordeste 65 Nordeste 0 989 0.1 81
2019-07-31 22:00:00 16.5 46 Nordeste 60 Nordeste 0 988.5 -0.6 78
2019-07-31 21:00:00 17.1 41 Nordeste 62 Nordeste 0 988.7 -0.8 73
2019-07-31 20:00:00 17.2 35 Norte 54 Norte 0 988.9 -0.8 77
2019-07-31 19:00:00 18.4 32 Norte 50 Nordeste 0 989.1 -1.1 72
2019-07-31 18:00:00 18.3 33 Nordeste 56 Norte 0 989.5 -1.1 78
2019-07-31 17:00:00 17.8 39 Norte 57 Norte 0 989.7 -1.2 80
2019-07-31 16:00:00 17.7 37 Norte 58 Norte 0 990.2 -0.8 78
2019-07-31 15:00:00 17.1 35 Norte 50 Norte 0 990.6 -1.5 79
2019-07-31 14:00:00 17.2 33 Norte 46 Norte 0 990.9 -1.3 78
2019-07-31 13:00:00 18 29 Nordeste 44 Norte 0 991 -1.4 74
2019-07-31 12:00:00 17.8 22 Nordeste 43 Nordeste 0 992.1 0.5 74
2019-07-31 11:00:00 16.5 23 Nordeste 35 Nordeste 0 992.2 0.3 80
2019-07-31 10:00:00 15.3 14 Norte 32 Este 0 992.4 0.7 83
2019-07-31 09:00:00 14.6 24 Nordeste 38 Nordeste 0 991.6 -0.5 85
2019-07-31 08:00:00 14.8 26 Nordeste 39 Nordeste 0 991.9 -0.5 85
2019-07-31 07:00:00 14.6 31 Nordeste 39 Nordeste 0 991.7 -1.1 85
2019-07-31 06:00:00 14.5 28 Nordeste 34 Nordeste 0 992.1 -1.3 82
2019-07-31 05:00:00 14.7 26 Nordeste 31 Nordeste 0 992.4 -1.4 79
2019-07-31 04:00:00 14.9 24 Nordeste 29 Nordeste 0 992.8 -1.2 80
2019-07-31 03:00:00 14.9 20 Nordeste 24 Nordeste 0 993.4 -1 79
2019-07-31 02:00:00 14.9 21 Nordeste 27 Nordeste 0 993.8 -0.6 79
2019-07-31 01:00:00 15 24 Nordeste 29 Nordeste 0 994 -0.1 79
2019-07-31 00:00:00 15.1 23 Nordeste 31 Nordeste 0 994.4 0.3 79
2019-07-30 23:00:00 15.4 21 Norte 32 Norte 0 994.4 0.3 78
2019-07-30 22:00:00 15.8 23 Norte 34 Nordeste 0 994.1 -0.2 76
2019-07-30 21:00:00 16.7 20 Norte 34 Norte 0 994.1 -0.7 72
2019-07-30 20:00:00 17.1 22 Norte 32 Norte 0 994.1 -0.8 70
2019-07-30 19:00:00 18 18 Norte 26 Norte 0 994.3 -1 66
2019-07-30 18:00:00 18.2 17 Norte 26 Norte 0 994.8 -0.7 65
2019-07-30 17:00:00 18.9 15 Norte 23 Norte 0 994.9 -0.7 62
2019-07-30 16:00:00 18.2 16 Norte 23 Norte 0 995.3 -0.2 62
2019-07-30 15:00:00 17.6 17 Norte 26 Norte 0 995.5 -0.1 63
2019-07-30 14:00:00 17.3 18 Norte 27 Norte 0 995.6 0.3 65
2019-07-30 13:00:00 17.2 17 Norte 26 Norte 0 995.5 0.4 68
2019-07-30 12:00:00 16.6 17 Norte 25 Norte 0 995.6 1 73
2019-07-30 11:00:00 16.4 13 Norte 23 Norte 0 995.3 1.2 72
2019-07-30 10:00:00 15.6 14 Norte 24 Norte 0 995.1 1.1 77
2019-07-30 09:00:00 15.4 18 Norte 30 Norte 0 994.6 1 76
2019-07-30 08:00:00 14.9 19 Norte 30 Norte 0 994.1 0.5 79
2019-07-30 07:00:00 15 15 Noroeste 30 Noroeste 0 994 0.4 78
2019-07-30 06:00:00 15.1 18 Norte 33 Norte 0 993.6 -0.1 79
2019-07-30 05:00:00 14.7 15 Noroeste 29 Norte 0 993.6 0 80
2019-07-30 04:00:00 14.8 13 Noroeste 28 Noroeste 0 993.6 0.2 81
2019-07-30 03:00:00 15 13 Noroeste 28 Noroeste 0 993.7 0.6 81
2019-07-30 02:00:00 15.3 10 Noroeste 31 Norte 0 993.6 0.8 84
2019-07-30 01:00:00 15.4 20 Norte 31 Norte 0 993.4 1.7 79
2019-07-30 00:00:00 15.5 18 Norte 33 Norte 0 993.1 1.6 80
2019-07-29 23:00:00 15.5 15 Noroeste 33 Norte 0 992.8 1.9 79
2019-07-29 22:00:00 15.6 17 Noroeste 33 Norte 0 991.7 0.7 79
2019-07-29 21:00:00 16.5 14 Noroeste 42 Norte 0 991.5 0.8 80
2019-07-29 20:00:00 16.8 15 Noroeste 41 Noroeste 0 990.9 0.7 76
2019-07-29 19:00:00 16.7 15 Noroeste 35 Norte 0 991 1.2 77
2019-07-29 18:00:00 17.6 22 Noroeste 48 Noroeste 0 990.7 1.1 75
2019-07-29 17:00:00 18.1 22 Noroeste 51 Noroeste 0 990.2 1.1 70
2019-07-29 16:00:00 18.2 31 Noroeste 44 Noroeste 0 989.8 1.2 73
2019-07-29 15:00:00 17.7 18 Noroeste 44 Noroeste 0 989.6 1.5 71
2019-07-29 14:00:00 17.8 28 Noroeste 51 Noroeste 0 989.1 1.7 76
2019-07-29 13:00:00 17.5 28 Noroeste 44 Noroeste 0 988.6 1.9 80
2019-07-29 12:00:00 17.1 17 Noroeste 37 Noroeste 0 988.1 2 78
2019-07-29 11:00:00 16.6 23 Noroeste 43 Noroeste 0 987.4 1.8 81
2019-07-29 10:00:00 15.9 28 Noroeste 51 Oeste 0.2 986.7 1.7 84
2019-07-29 09:00:00 16.1 31 Noroeste 46 Oeste 0 986.1 1.3 80
2019-07-29 08:00:00 15.8 31 Oeste 46 Noroeste 0 985.6 1 83
2019-07-29 07:00:00 15.8 26 Noroeste 42 Oeste 0 985 0.5 84
2019-07-29 06:00:00 15 27 Oeste 58 Oeste 0 984.8 0.4 90
2019-07-29 05:00:00 16.1 33 Oeste 47 Oeste 0 984.6 0.4 86
2019-07-29 04:00:00 16.3 31 Noroeste 53 Oeste 0 984.5 0.6 84
2019-07-29 03:00:00 16.4 33 Noroeste 56 Oeste 0 984.4 0.5 84
2019-07-29 02:00:00 16.5 37 Oeste 64 Sudoeste 0 984.2 0.3 87
2019-07-29 01:00:00 16.2 35 Sudoeste 50 Sudoeste 0 983.9 0.1 95
2019-07-29 00:00:00 15.9 35 Sur 63 Sudoeste 0.6 983.9 0.1 94
2019-07-28 23:00:00 16.1 30 Sur 50 Sur 1 983.9 0 93
2019-07-28 22:00:00 16.5 27 Sur 42 Sur 0 983.8 -0.4 89
2019-07-28 21:00:00 17.3 22 Sur 36 Sur 0 983.8 -0.4 84
2019-07-28 20:00:00 19.1 21 Sur 31 Sur 0 983.9 -1 79
2019-07-28 19:00:00 20.1 21 Sudoeste 30 Sudoeste 0 984.2 -0.9 76
2019-07-28 18:00:00 21 16 Sudoeste 24 Sur 0 984.2 -1.6 70
2019-07-28 17:00:00 21.3 10 Sudoeste 20 Sudoeste 0 984.9 -1 68
2019-07-28 16:00:00 20 8 Sudoeste 17 Sudoeste 0 985.1 -1.4 69
2019-07-28 15:00:00 18.9 8 Oeste 16 Sudoeste 0 985.8 -0.6 71
2019-07-28 14:00:00 20.4 9 Sudoeste 18 Sudoeste 0 985.9 -0.6 66
2019-07-28 13:00:00 18.3 6 Norte 9 Norte 0 986.5 -0.2 73
2019-07-28 12:00:00 18.5 5 Norte 10 Norte 0 986.4 -0.3 75
2019-07-28 11:00:00 19.5 5 Este 17 Este 0 986.5 -0.3 68
2019-07-28 10:00:00 17.6 13 Este 26 Este 0 986.7 0 75
2019-07-28 09:00:00 16.3 18 Este 27 Este 0 986.7 0.1 77
2019-07-28 08:00:00 15.2 19 Este 28 Este 0 986.8 -0.1 82
2019-07-28 07:00:00 14.8 21 Este 28 Este 0 986.7 -0.8 85
2019-07-28 06:00:00 14.8 22 Este 33 Nordeste 0 986.6 -1.2 88
2019-07-28 05:00:00 15 23 Nordeste 38 Nordeste 0 986.9 -1.6 89
2019-07-28 04:00:00 15 29 Nordeste 37 Nordeste 0 987.5 -0.8 90
2019-07-28 03:00:00 15 24 Nordeste 36 Nordeste 0 987.8 -0.4 90
2019-07-28 02:00:00 14.8 22 Nordeste 40 Nordeste 0 988.5 0.4 91
2019-07-28 01:00:00 15 24 Nordeste 44 Norte 0 988.3 0.5 90
2019-07-28 00:00:00 15.2 30 Nordeste 42 Nordeste 0 988.2 0.9 89
2019-07-27 23:00:00 15.4 24 Nordeste 37 Nordeste 0 988.1 1.1 89
2019-07-26 12:00:00 19.3 5 Noroeste 11 Norte 0 990.7 0.6 78
2019-07-26 11:00:00 18.2 5 Noroeste 10 Noroeste 0 990.6 0.5 80
2019-07-26 10:00:00 17.4 7 Norte 19 Norte 0 990.6 0.5 81
2019-07-26 09:00:00 16.2 14 Norte 19 Norte 0 990.1 0.5 87
2019-07-26 08:00:00 15.9 12 Norte 19 Norte 0 990.1 0.4 90
2019-07-26 07:00:00 16 14 Norte 20 Norte 0 990.1 0.4 91
2019-07-26 06:00:00 16.2 12 Norte 22 Norte 0 989.6 -0.2 89
2019-07-26 05:00:00 16.1 15 Norte 23 Norte 0 989.7 -0.3 89
2019-07-26 04:00:00 16.3 14 Norte 24 Noroeste 0 989.7 -0.2 92
2019-07-26 03:00:00 16.2 16 Norte 27 Noroeste 0 989.8 -0.2 90
2019-07-26 02:00:00 16.4 16 Noroeste 30 Noroeste 0 990 0.4 91
2019-07-26 01:00:00 16.8 21 Noroeste 30 Noroeste 0 989.9 0.9 91
2019-07-26 00:00:00 16.7 19 Noroeste 28 Noroeste 0 990 1.2 91
2019-07-25 23:00:00 17.2 15 Oeste 23 Oeste 0 989.6 1.1 92
2019-07-25 22:00:00 17.2 21 Oeste 27 Oeste 0 989 0.9 89
2019-07-25 21:00:00 18.5 21 Oeste 33 Oeste 0 988.8 0.8 86
2019-07-25 20:00:00 20.6 16 Sudoeste 23 Sudoeste 0 988.5 0.7 84
2019-07-25 19:00:00 21.4 15 Sudoeste 25 Sudoeste 0 988.1 0.4 82
2019-07-25 18:00:00 21.9 21 Sudoeste 28 Sudoeste 0 988 0.4 82
2019-07-25 17:00:00 21.8 21 Sudoeste 27 Sudoeste 0 987.8 0.5 85
2019-07-25 16:00:00 22.1 21 Sudoeste 26 Sudoeste 0 987.7 1 87
2019-07-25 15:00:00 21.6 22 Sudoeste 32 Sudoeste 0 987.6 1.6 91
2019-07-25 14:00:00 20.7 27 Sudoeste 35 Sudoeste 0.2 987.3 1.8 96
2019-07-25 13:00:00 19.9 23 Sudoeste 35 Sudoeste 0 986.7 1.6 96
2019-07-25 12:00:00 17.5 30 Sudoeste 42 Sudoeste 0 986 1.3 96
2019-07-25 11:00:00 17.1 27 Sudoeste 35 Sudoeste 0.2 985.5 1.4 96
2019-07-25 10:00:00 16.6 28 Sudoeste 42 Sudoeste 1 985.1 1.6 96
2019-07-25 09:00:00 16.4 29 Sudoeste 51 Sudoeste 0.6 984.7 1.3 96
2019-07-25 08:00:00 15.9 41 Sudoeste 61 Sudoeste 0.4 984.1 0.7 96
2019-07-25 07:00:00 16.3 35 Sur 63 Sur 1 983.5 -0.3 96
2019-07-25 06:00:00 16.8 35 Sur 60 Sudoeste 0 983.4 -0.5 96
2019-07-25 05:00:00 16.6 38 Sur 66 Sur 0 983.4 -0.8 96
2019-07-25 04:00:00 16.6 40 Sur 64 Sur 0.4 983.8 -0.8 96
2019-07-25 03:00:00 16.4 33 Sur 60 Sudoeste 0.2 983.9 -1 96
2019-07-25 02:00:00 16.6 35 Sur 60 Sur 0.2 984.2 -1 96
2019-07-25 01:00:00 17.2 30 Sur 55 Sur 0 984.6 -0.5 96
2019-07-25 00:00:00 16.6 33 Sur 53 Sur 0 984.9 -0.1 95
2019-07-24 23:00:00 17.5 26 Sur 49 Sur 0 985.2 0 95
2019-07-24 22:00:00 16.6 30 Sur 55 Sudoeste 0 985.1 -0.3 95
2019-07-24 21:00:00 17.1 30 Sur 53 Sur 0 985 -1 94
2019-07-24 20:00:00 17 30 Sur 56 Sudoeste 0 985.2 -0.8 93
2019-07-24 19:00:00 16.9 37 Sur 57 Sudoeste 0 985.4 -0.6 92
2019-07-24 18:00:00 17.6 32 Sur 51 Sudoeste 0 986 -0.5 91
2019-07-24 17:00:00 16.9 30 Sur 51 Sur 0 986 -0.9 94
2019-07-24 16:00:00 16.5 25 Sur 48 Sur 0 986 -1.2 94
2019-07-24 15:00:00 16.9 23 Sur 45 Sur 0.2 986.5 -0.7 95
2019-07-24 14:00:00 17.1 22 Sur 38 Sur 0 986.9 -0.3 95
2019-07-24 13:00:00 16.6 20 Sur 35 Sur 0 987.2 -0.1 95
2019-07-24 12:00:00 16.5 20 Sur 35 Sur 0 987.2 -0.2 95
2019-07-24 11:00:00 15.9 23 Sur 33 Sur 0 987.2 -0.4 95
2019-07-24 10:00:00 16.9 22 Sur 32 Sur 0 987.3 -0.4 95
2019-07-24 09:00:00 16.8 19 Sur 32 Sur 0 987.4 -0.1 95
2019-07-24 08:00:00 17.1 26 Sur 35 Sur 0 987.6 -0.5 95
2019-07-24 07:00:00 17 19 Sur 28 Sur 0 987.7 -0.7 95
2019-07-24 06:00:00 17 23 Sur 31 Sudeste 0 987.5 -1.5 95
2019-07-24 05:00:00 17.5 15 Sudeste 21 Sur 0 988.1 -1.4 94
2019-07-24 04:00:00 17.6 17 Sudeste 22 Sur 0 988.4 -1.3 94
2019-07-24 03:00:00 17.4 14 Sudeste 23 Sudeste 0 989 -1 94
2019-07-24 02:00:00 17.4 15 Sudeste 19 Sudeste 0 989.5 -0.5 94
2019-07-24 01:00:00 17.2 12 Sur 16 Sur 0 989.7 0 94
2019-07-24 00:00:00 16.8 10 Sur 20 Sur 0 990 0.8 94
2019-07-23 23:00:00 17.1 15 Sur 24 Sudoeste 0 990 0.8 93
2019-07-23 22:00:00 16.8 12 Sur 16 Sur 0 989.7 -0.1 92
2019-07-23 21:00:00 17.5 14 Sur 21 Sur 0 989.2 -0.7 91
2019-07-23 20:00:00 18.1 17 Sur 22 Sur 0 989.2 -0.8 91
2019-07-23 19:00:00 19.1 10 Sur 16 Sudoeste 0 989.8 -0.6 92
2019-07-23 18:00:00 19.3 9 Sur 19 Sur 0 989.9 -0.5 92
2019-07-23 17:00:00 19.9 12 Sur 20 Sur 0 990 0.3 94
2019-07-23 16:00:00 19.6 11 Oeste 23 Oeste 0 990.4 0.9 95
2019-07-23 15:00:00 17.2 16 Oeste 26 Oeste 0 990.4 1.4 96
2019-07-23 14:00:00 18.5 5 Sudoeste 16 Noroeste 0 989.7 0.9 96
2019-07-23 13:00:00 17.4 9 Noroeste 17 Noroeste 0 989.5 0.7 96
2019-07-23 12:00:00 18.8 4 Noroeste 9 Noroeste 0 989 0.6 96
2019-07-23 11:00:00 18.5 3 Noroeste 8 Noroeste 0 988.8 0.5 96
2019-07-23 10:00:00 18.2 5 Norte 12 Norte 0 988.8 0.8 96
2019-07-23 09:00:00 17.1 8 Norte 13 Norte 0 988.4 0.4 96
2019-07-23 08:00:00 17.5 6 Norte 19 Nordeste 0 988.3 0.9 96
2019-07-23 07:00:00 17.9 16 Nordeste 24 Nordeste 0 988 0.1 96
2019-07-23 06:00:00 17.8 18 Nordeste 35 Norte 0 988 -0.4 96
2019-07-23 05:00:00 17.6 26 Nordeste 34 Norte 0 987.4 -1.1 96
2019-07-23 04:00:00 17.5 20 Nordeste 27 Norte 0 987.9 -0.8 96
2019-07-23 03:00:00 17.8 16 Nordeste 21 Nordeste 0 988.4 -0.3 96
2019-07-23 02:00:00 18.2 16 Este 39 Este 0 988.5 -0.3 96
2019-07-23 01:00:00 18.1 27 Nordeste 53 Nordeste 0 988.7 0.1 96
2019-07-23 00:00:00 18.3 38 Nordeste 58 Nordeste 0 988.7 0.2 95
2019-07-22 23:00:00 18.3 39 Nordeste 59 Nordeste 0 988.8 0.3 95
2019-07-22 22:00:00 18.4 40 Nordeste 59 Nordeste 0 988.6 -0.4 94
2019-07-22 21:00:00 18.7 42 Nordeste 56 Nordeste 0 988.5 -0.9 92
2019-07-22 20:00:00 19 37 Nordeste 50 Nordeste 0 988.5 -1.4 87
2019-07-22 19:00:00 21 30 Nordeste 40 Norte 0 989 -1 80
2019-07-22 18:00:00 21.7 28 Nordeste 42 Nordeste 0 989.4 -0.9 80
2019-07-22 17:00:00 22.7 26 Nordeste 49 Nordeste 0 989.9 -0.6 77
2019-07-22 16:00:00 20.7 33 Nordeste 48 Nordeste 0 990 -0.8 82
2019-07-22 15:00:00 21.7 30 Nordeste 48 Nordeste 0 990.3 -0.7 81
2019-07-22 14:00:00 20.7 35 Nordeste 46 Nordeste 0 990.5 -0.6 84
2019-07-22 13:00:00 21 35 Nordeste 47 Nordeste 0 990.8 -0.6 81
2019-07-22 12:00:00 20.3 38 Nordeste 47 Nordeste 0 991 -0.8 84
2019-07-22 11:00:00 19.6 33 Nordeste 46 Nordeste 0 991.1 -1.1 84
2019-07-22 10:00:00 19.1 32 Nordeste 53 Nordeste 0 991.4 -0.3 86
2019-07-22 09:00:00 18.3 28 Nordeste 46 Nordeste 0 991.8 0 90
2019-07-22 08:00:00 18 26 Nordeste 45 Nordeste 0 992.2 0.2 91
2019-07-22 07:00:00 17.8 30 Nordeste 50 Nordeste 0 991.7 -1 92
2019-07-22 06:00:00 17.7 30 Nordeste 54 Nordeste 0 991.8 -1.7 91
2019-07-22 05:00:00 17.7 27 Nordeste 44 Nordeste 0 992 -1.5 91
2019-07-22 04:00:00 17.7 30 Nordeste 46 Nordeste 0 992.7 -1.1 90
2019-07-22 03:00:00 17.8 24 Nordeste 50 Nordeste 0 993.5 -0.9 90
2019-07-22 02:00:00 17.4 32 Nordeste 54 Nordeste 0 993.5 -0.8 91
2019-07-22 01:00:00 17.5 33 Nordeste 51 Nordeste 0 993.8 -0.2 91
2019-07-22 00:00:00 17.6 29 Nordeste 50 Nordeste 0 994.4 0.5 90
2019-07-21 23:00:00 17.6 31 Nordeste 52 Nordeste 0 994.3 0.7 89
2019-07-21 22:00:00 17.6 30 Nordeste 48 Nordeste 0 994 0.4 89
2019-07-21 21:00:00 18.5 26 Nordeste 49 Nordeste 0 993.9 0 85
2019-07-21 20:00:00 19.2 32 Nordeste 53 Nordeste 0 993.6 -0.7 81
2019-07-21 19:00:00 18.9 37 Nordeste 54 Nordeste 0 993.6 -0.6 82
2019-07-21 18:00:00 18.7 35 Norte 54 Nordeste 0 993.9 -0.6 84
2019-07-21 17:00:00 18.8 32 Norte 54 Norte 0 994.3 -0.1 84
2019-07-21 16:00:00 18.2 34 Norte 54 Nordeste 0 994.2 -0.1 87
2019-07-21 15:00:00 18 33 Norte 49 Nordeste 0 994.5 0.1 89
2019-07-21 14:00:00 17.9 35 Norte 58 Norte 0 994.4 0.1 90
2019-07-21 13:00:00 16.7 38 Norte 53 Norte 0 994.3 -0.3 95
2019-07-21 12:00:00 17.5 27 Norte 40 Nordeste 0 994.4 0 90
2019-07-21 11:00:00 18.6 17 Nordeste 30 Nordeste 0 994.3 0.3 85
2019-07-21 10:00:00 16.6 17 Nordeste 33 Nordeste 0 994.6 1 92
2019-07-21 09:00:00 15.7 21 Nordeste 35 Nordeste 0 994.4 0.8 95
2019-07-21 08:00:00 15.3 24 Nordeste 32 Nordeste 0 994 0.3 94
2019-07-21 07:00:00 15.1 26 Nordeste 34 Nordeste 0 993.6 -0.1 92
2019-07-21 06:00:00 15.5 23 Nordeste 31 Nordeste 0 993.6 -0.2 91
2019-07-21 05:00:00 15.3 21 Nordeste 30 Nordeste 0 993.7 -0.2 92
2019-07-21 04:00:00 15.8 22 Nordeste 35 Nordeste 0 993.7 -0.3 92
2019-07-21 03:00:00 16.1 27 Nordeste 36 Nordeste 0 993.8 -0.2 92
2019-07-21 02:00:00 16 27 Nordeste 35 Nordeste 0 993.9 -0.1 94
2019-07-21 01:00:00 16 23 Nordeste 36 Nordeste 0 994 0.9 94
2019-07-21 00:00:00 16.4 26 Nordeste 35 Nordeste 0 994 1.4 94
2019-07-20 23:00:00 16.5 23 Nordeste 40 Norte 0 994 1.5 94
2019-07-20 22:00:00 17.1 27 Norte 42 Norte 0 993.1 0.7 93
2019-07-20 21:00:00 17.8 27 Norte 45 Norte 0 992.6 0.3 90
2019-07-20 20:00:00 18.3 32 Norte 43 Norte 0 992.5 0.3 88
2019-07-20 19:00:00 18.3 29 Norte 40 Norte 0 992.4 0.3 88
2019-07-20 18:00:00 18.4 28 Norte 36 Norte 0 992.3 0.2 87
2019-07-20 17:00:00 18.4 27 Norte 34 Norte 0 992.2 0.4 86
2019-07-20 16:00:00 18.3 21 Norte 27 Norte 0 992.1 0.6 87
2019-07-20 15:00:00 18.1 18 Norte 24 Norte 0 992.1 1.1 90
2019-07-20 14:00:00 18.4 14 Norte 20 Norte 0 991.8 1.2 92
2019-07-20 13:00:00 17.8 16 Norte 21 Norte 0 991.5 1.2 94
2019-07-20 12:00:00 17.7 11 Norte 16 Norte 0 991 1.1 95
2019-07-20 11:00:00 17.3 13 Norte 20 Norte 0 990.6 1.2 96
2019-07-20 10:00:00 17 17 Norte 24 Norte 0 990.3 1.3 96
2019-07-20 09:00:00 16.9 15 Norte 24 Norte 0 989.9 1.2 96
2019-07-20 08:00:00 17.2 13 Noroeste 22 Noroeste 0.2 989.4 0.8 95
2019-07-20 07:00:00 17.4 10 Oeste 19 Oeste 0 989 0.2 95
2019-07-20 06:00:00 17.4 12 Sudoeste 17 Oeste 0 988.7 -0.2 95
2019-07-20 05:00:00 17.8 10 Oeste 18 Oeste 0 988.6 -0.4 95
2019-07-20 04:00:00 17.8 10 Oeste 17 Oeste 0 988.8 -0.2 95
2019-07-20 03:00:00 17.8 9 Oeste 16 Oeste 0 988.9 -0.2 95
2019-07-20 02:00:00 17.7 12 Oeste 15 Oeste 0 989 0.1 95
2019-07-20 01:00:00 17.4 7 Noroeste 17 Noroeste 0 989 0.5 95
2019-07-20 00:00:00 17.7 11 Noroeste 26 Norte 0 989.1 0.7 95
2019-07-19 23:00:00 17.4 15 Norte 28 Norte 0 988.9 0.6 95
2019-07-19 22:00:00 17.1 17 Norte 29 Norte 0 988.5 0.2 95
2019-07-19 21:00:00 16.8 22 Norte 29 Norte 0 988.4 0 95
2019-07-19 20:00:00 16.9 21 Norte 29 Norte 0 988.3 -0.2 94
2019-07-19 19:00:00 17.4 19 Norte 30 Norte 0 988.3 -0.3 89
2019-07-19 18:00:00 20.7 23 Norte 38 Norte 0 988.4 -0.1 80
2019-07-19 17:00:00 17.6 26 Norte 45 Norte 0 988.5 -0.2 89
2019-07-19 16:00:00 17.7 29 Norte 48 Norte 0 988.6 0.1 83
2019-07-19 15:00:00 17.4 32 Norte 47 Norte 0 988.5 0.2 86
2019-07-19 14:00:00 17.1 33 Norte 50 Norte 0 988.7 0.1 84
2019-07-19 13:00:00 16.6 40 Norte 53 Norte 0 988.5 0 87
2019-07-19 12:00:00 16.4 38 Norte 54 Norte 0 988.3 0.1 87
2019-07-19 11:00:00 17 27 Nordeste 39 Nordeste 0 988.6 0.2 85
2019-07-19 10:00:00 17.4 25 Nordeste 43 Nordeste 0 988.5 0.3 85
2019-07-19 09:00:00 16 34 Nordeste 45 Nordeste 0 988.2 -0.2 91
2019-07-19 08:00:00 15.6 27 Nordeste 42 Nordeste 0 988.4 -0.6 93
2019-07-19 07:00:00 15.7 33 Nordeste 45 Nordeste 0 988.2 -1.4 93
2019-07-19 06:00:00 15.8 34 Nordeste 43 Nordeste 0 988.4 -1.8 92
2019-07-19 05:00:00 16.1 24 Nordeste 37 Nordeste 0 989 -1.7 92
2019-07-19 04:00:00 16.2 23 Nordeste 40 Nordeste 0 989.6 -1.2 92
2019-07-19 03:00:00 16.3 25 Nordeste 39 Nordeste 0 990.2 -0.6 92
2019-07-19 02:00:00 16.3 24 Nordeste 48 Nordeste 0 990.7 -0.2 93
2019-07-19 01:00:00 16.4 31 Nordeste 48 Norte 0 990.8 0.2 93
2019-07-19 00:00:00 16.5 35 Nordeste 50 Nordeste 0 990.8 0.2 93